Home > Products > Valid Products > TAF

000
FTUS46 KLOX 301400 AAA
TAFLAX
TAF AMD
KLAX 301451Z 3015/0118 00000KT P6SM FEW004 SCT150
     FM301800 26012KT P6SM SKC
     FM010400 VRB03KT P6SM SKC
     FM010700 VRB03KT P6SM BKN008
     FM011000 VRB03KT P6SM OVC012
     FM011600 22006KT P6SM SCT015=



000
FTUS46 KLOX 301400 AAC
TAFSMX
TAF AMD
KSMX 301412Z 3014/0112 07003KT 6SM BR SKC
     FM301600 VRB03KT P6SM SKC
     FM301800 29012KT P6SM SKC
     FM010400 VRB03KT P6SM SKC
     FM011000 VRB03KT 6SM HZ SKC=



000
FTUS46 KLOX 301300 AAB
TAFSMX
TAF AMD
KSMX 301318Z 3013/0112 VRB03KT 5SM BR SCT001
     FM301400 VRB03KT 3SM BR BKN003
     FM301600 VRB03KT 5SM HZ FEW006
     FM301800 29012KT P6SM SKC
     FM010400 VRB03KT P6SM SKC
     FM011000 VRB03KT 6SM HZ SKC=



000
FTUS46 KLOX 301100 AAA
TAFPRB
TAF AMD
KPRB 301135Z 3012/0112 VRB03KT P6SM BKN002
     FM301300 VRB03KT 3SM BR OVC002
     FM301500 VRB03KT 5SM BR OVC004
     FM301630 VRB03KT P6SM SKC
     FM302200 33008KT P6SM SKC
     FM010400 VRB03KT P6SM SKC=



000
FTUS46 KLOX 301100 AAA
TAFSMX
TAF AMD
KSMX 301134Z 3012/0112 VRB03KT 1/4SM FG VV001
     FM301400 VRB03KT 3SM BR OVC003
     FM301600 VRB03KT 5SM HZ FEW006
     FM301800 29012KT P6SM SKC
     FM010400 VRB03KT P6SM SKC
     FM011000 VRB03KT 6SM HZ SKC=



000
FTUS46 KLOX 301100
TAFSBA
TAF
KSBA 301133Z 3012/0112 VRB03KT P6SM SKC
     FM301700 17006KT P6SM SKC
     FM302000 24008KT P6SM SKC
     FM010400 VRB03KT P6SM SKC
     FM011000 09005KT P6SM BKN008=



000
FTUS46 KLOX 301100
TAFSBP
TAF
KSBP 301133Z 3012/0112 VRB03KT P6SM SKC
     FM302000 32015G25KT P6SM SKC
     FM010400 32008KT P6SM SKC
     FM010900 VRB03KT P6SM SKC=



000
FTUS46 KLOX 301100
TAFPMD
TAF
KPMD 301133Z 3012/0112 21006KT P6SM SKC
     FM301500 VRB05KT P6SM SKC
     FM302200 28010KT P6SM SKC
     FM010000 28015KT P6SM SKC
     FM010400 28008KT P6SM SKC
     FM011000 24012KT P6SM SKC=



000
FTUS46 KLOX 301100
TAFVNY
TAF
KVNY 301133Z 3012/0112 VRB03KT P6SM SKC
     FM302000 14007KT P6SM SKC
     FM010300 VRB03KT P6SM SKC
     FM011000 02006KT P6SM SKC=



000
FTUS46 KLOX 301100
TAFBUR
TAF
KBUR 301133Z 3012/0112 VRB03KT P6SM SKC
     FM301900 17008KT P6SM SKC
     FM010300 VRB03KT P6SM SKC=



000
FTUS46 KLOX 301100
TAFLAX
TAF
KLAX 301133Z 3012/0118 VRB03KT P6SM SKC
     FM301800 26012KT P6SM SKC
     FM010400 VRB03KT P6SM SKC
     FM010700 VRB03KT P6SM BKN008
     FM011000 VRB03KT P6SM OVC012
     FM011600 22006KT P6SM SCT015=



000
FTUS46 KLOX 301100
TAFWJF
TAF
KWJF 301133Z 3012/0112 VRB05KT P6SM SKC
     FM302200 25015KT P6SM SKC
     FM010000 28015G25KT P6SM SKC
     FM010400 28012KT P6SM SKC=



000
FTUS46 KLOX 301100
TAFLGB
TAF
KLGB 301133Z 3012/0112 VRB03KT P6SM SKC
     FM301900 20008KT P6SM SKC
     FM010000 30010KT P6SM SKC
     FM010400 VRB03KT P6SM SKC
     FM010700 VRB03KT P6SM BKN008
     FM011000 VRB03KT P6SM OVC012=



000
FTUS46 KLOX 301100
TAFSMX
TAF
KSMX 301133Z 3012/0112 VRB03KT 1SM BR BKN003
     FM301600 VRB03KT 5SM HZ FEW006
     FM301800 29012KT P6SM SKC
     FM010400 VRB03KT P6SM SKC
     FM011000 VRB03KT 6SM HZ SKC=



000
FTUS46 KLOX 301100
TAFPRB
TAF
KPRB 301133Z 3012/0112 VRB03KT P6SM BKN006
     FM301630 VRB03KT P6SM SKC
     FM302200 33008KT P6SM SKC
     FM010400 VRB03KT P6SM SKC=



000
FTUS46 KLOX 301000 AAB
TAFSMX
TAF AMD
KSMX 301021Z 3010/0106 VRB03KT P6SM BKN001
     FM301200 VRB03KT 1SM BR BKN003
     FM301600 VRB03KT 5SM HZ FEW006
     FM301800 29012KT P6SM SKC
     FM010400 VRB03KT P6SM SKC=



000
FTUS46 KLOX 301000 AAA
TAFSMX
TAF AMD
KSMX 301012Z 3010/0106 VRB03KT P6SM SCT002
     FM301200 VRB03KT 1SM BR BKN004
     FM301600 VRB03KT 5SM HZ FEW006
     FM301800 29012KT P6SM SKC
     FM010400 VRB03KT P6SM SKC=



000
FTUS46 KLOX 300800 AAA
TAFLAX
TAF AMD
KLAX 300843Z 3009/0112 VRB03KT P6SM SKC
     FM301800 26012KT P6SM SKC
     FM010400 VRB03KT P6SM SKC=



000
FTUS46 KLOX 300500
TAFBUR
TAF
KBUR 300523Z 3006/0106 VRB03KT P6SM SKC
     FM301900 17008KT P6SM SKC
     FM010200 VRB03KT P6SM SKC=



000
FTUS46 KLOX 300500
TAFSBA
TAF
KSBA 300523Z 3006/0106 VRB03KT P6SM SKC
     FM301700 17006KT P6SM SKC
     FM302000 24008KT P6SM SKC
     FM010400 VRB03KT P6SM SKC=



000
FTUS46 KLOX 300500
TAFPMD
TAF
KPMD 300523Z 3006/0106 31008KT P6SM SKC
     FM300800 VRB03KT P6SM SKC
     FM302200 28010KT P6SM SKC
     FM010000 28015KT P6SM SKC
     FM010400 28008KT P6SM SKC=



000
FTUS46 KLOX 300500
TAFWJF
TAF
KWJF 300523Z 3006/0106 30008KT P6SM SKC
     FM300800 VRB03KT P6SM SKC
     FM302200 25015KT P6SM SKC
     FM010000 28015G25KT P6SM SKC
     FM010400 28012KT P6SM SKC=



000
FTUS46 KLOX 300500
TAFVNY
TAF
KVNY 300523Z 3006/0106 VRB03KT P6SM SKC
     FM302000 14007KT P6SM SKC
     FM010300 VRB03KT P6SM SKC=



000
FTUS46 KLOX 300500
TAFLGB
TAF
KLGB 300523Z 3006/0106 VRB03KT P6SM SKC
     FM301900 19008KT P6SM SKC
     FM302200 30010KT P6SM SKC
     FM010400 VRB03KT P6SM SKC=



000
FTUS46 KLOX 300500
TAFPRB
TAF
KPRB 300523Z 3006/0106 VRB03KT P6SM SKC
     FM302200 33008KT P6SM SKC
     FM010400 VRB03KT P6SM SKC=



000
FTUS46 KLOX 300500
TAFSBP
TAF
KSBP 300523Z 3006/0106 VRB03KT P6SM SKC
     FM302000 32015G25KT P6SM SKC
     FM010400 32008KT P6SM SKC=



000
FTUS46 KLOX 300500
TAFSMX
TAF
KSMX 300523Z 3006/0106 VRB03KT P6SM SKC
     FM301000 VRB03KT 1SM BR BKN004
     FM301600 VRB03KT 5SM HZ FEW006
     FM301800 29012KT P6SM SKC
     FM010400 VRB03KT P6SM SKC=



000
FTUS46 KLOX 300500
TAFLAX
TAF
KLAX 300523Z 3006/0112 VRB03KT P6SM SKC
     FM301800 26012KT P6SM SKC
     FM010400 VRB03KT P6SM SKC=



000
FTUS46 KLOX 300200 AAA
TAFSBP
TAF AMD
KSBP 300251Z 3003/3024 32012KT P6SM SKC
     FM300500 VRB03KT P6SM SKC
     FM302000 31015G25KT P6SM SKC=



000
FTUS46 KLOX 300200 AAA
TAFLAX
TAF AMD
KLAX 300250Z 3003/0106 26008KT P6SM SKC
     FM300500 VRB03KT P6SM SKC
     FM301800 26012KT P6SM SKC
     FM010400 VRB03KT P6SM SKC=



000
FTUS46 KLOX 300200 AAA
TAFSMX
TAF AMD
KSMX 300250Z 3003/3024 29010KT P6SM SKC
     FM300500 VRB03KT P6SM SKC
     FM301000 VRB03KT 1SM BR BKN004
     FM301600 VRB03KT 5SM HZ FEW006
     FM301800 29010KT P6SM SKC=



000
FTUS46 KLOX 292300
TAFVNY
TAF
KVNY 292324Z 3000/3024 14008KT P6SM SKC
     FM300300 VRB03KT P6SM SKC
     FM302000 14007KT P6SM SKC=



000
FTUS46 KLOX 292300
TAFLGB
TAF
KLGB 292324Z 3000/3024 31010KT P6SM SKC
     FM300400 VRB03KT P6SM SKC
     FM301900 19007KT P6SM SKC
     FM302200 30010KT P6SM SKC=



000
FTUS46 KLOX 292300
TAFPMD
TAF
KPMD 292324Z 3000/3024 29008KT P6SM SKC
     FM300500 VRB03KT P6SM SKC
     FM302200 30010KT P6SM SKC=



000
FTUS46 KLOX 292300
TAFLAX
TAF
KLAX 292324Z 3000/0106 25015KT P6SM SKC
     FM300200 26010KT P6SM SKC
     FM300500 VRB03KT P6SM SKC
     FM301800 26012KT P6SM SKC
     FM010400 VRB03KT P6SM SKC=



000
FTUS46 KLOX 292300
TAFSBP
TAF
KSBP 292324Z 3000/3024 32018G26KT P6SM SKC
     FM300200 32008KT P6SM SKC
     FM300500 VRB03KT P6SM SKC
     FM302000 31015G25KT P6SM SKC=



000
FTUS46 KLOX 292300
TAFSBA
TAF
KSBA 292324Z 3000/3024 25008KT P6SM SKC
     FM300200 VRB03KT P6SM SKC
     FM301700 17006KT P6SM SKC
     FM302000 24007KT P6SM SKC=



000
FTUS46 KLOX 292300
TAFBUR
TAF
KBUR 292324Z 3000/3024 18008KT P6SM SKC
     FM300400 VRB03KT P6SM SKC
     FM301900 17008KT P6SM SKC=



000
FTUS46 KLOX 292300
TAFWJF
TAF
KWJF 292324Z 3000/3024 29012KT P6SM SKC
     FM300500 VRB03KT P6SM SKC
     FM302200 27014KT P6SM SKC=



000
FTUS46 KLOX 292300
TAFSMX
TAF
KSMX 292324Z 3000/3024 30018G26KT P6SM SKC
     FM300300 30008KT P6SM SKC
     FM300500 VRB03KT P6SM SKC
     FM301000 VRB03KT 1SM BR BKN004
     FM301600 VRB03KT 5SM HZ FEW006
     FM301800 29010KT P6SM SKC=



000
FTUS46 KLOX 292300
TAFPRB
TAF
KPRB 292324Z 3000/3024 34008KT P6SM SKC
     FM300500 VRB03KT P6SM SKC
     FM302200 33008KT P6SM SKC=



000
FTUS46 KLOX 292200 AAA
TAFSBP
TAF AMD
KSBP 292207Z 2922/3018 32018G25KT P6SM SKC
     FM300400 VRB05KT P6SM SKC
     FM301000 VRB03KT P6SM SCT010=



000
FTUS46 KLOX 292000 AAA
TAFLAX
TAF AMD
KLAX 292050Z 2921/3024 26010KT P6SM FEW090
     FM300400 VRB05KT P6SM SKC
     FM300900 VRB03KT P6SM SKC
     FM301300 VRB03KT 6SM BR SCT010
     FM301700 25006KT P6SM SKC
     FM302000 25010KT P6SM SKC=



000
FTUS46 KLOX 291700 RRA
TAFPMD
TAF
KPMD 291742Z 2918/3018 09006KT P6SM SKC
     FM292200 26010KT P6SM SCT250
     FM300500 VRB05KT P6SM SCT250=



000
FTUS46 KLOX 291700 RRA
TAFSBA
TAF
KSBA 291742Z 2918/3018 VRB04KT P6SM SKC
     FM292100 24008KT P6SM SKC
     FM300200 VRB03KT P6SM SKC=



000
FTUS46 KLOX 291700 RRA
TAFLGB
TAF
KLGB 291742Z 2918/3018 VRB03KT P6SM SKC
     FM292000 21008KT P6SM SKC
     FM292300 31008KT P6SM SKC
     FM300400 VRB03KT P6SM SKC=



000
FTUS46 KLOX 291700 RRA
TAFLAX
TAF
KLAX 291742Z 2918/3024 27003KT P6SM FEW010
     FM292000 25012KT P6SM SKC
     FM300400 VRB05KT P6SM SKC
     FM300900 VRB03KT P6SM SKC
     FM301300 VRB03KT 6SM BR SCT010
     FM301700 25006KT P6SM SKC
     FM302000 25010KT P6SM SKC=



000
FTUS46 KLOX 291700 RRA
TAFSMX
TAF
KSMX 291742Z 2918/3018 00000KT P6SM SKC
     FM292000 30012KT P6SM SKC
     FM300300 VRB05KT P6SM SKC
     FM301000 VRB03KT P6SM SCT010=



000
FTUS46 KLOX 291700 RRA
TAFVNY
TAF
KVNY 291742Z 2918/3018 11006KT P6SM SKC
     FM292100 16008KT P6SM SKC
     FM300400 VRB05KT P6SM SKC=



000
FTUS46 KLOX 291700 RRA
TAFSBP
TAF
KSBP 291742Z 2918/3018 27003KT P6SM SKC
     FM292000 30008KT P6SM SKC
     FM292200 31014KT P6SM SKC
     FM300400 VRB05KT P6SM SKC
     FM301000 VRB03KT P6SM SCT010=



000
FTUS46 KLOX 291700 RRA
TAFBUR
TAF
KBUR 291742Z 2918/3018 11003KT P6SM SKC
     FM292100 18008KT P6SM SKC
     FM300400 VRB05KT P6SM SKC=



000
FTUS46 KLOX 291700 RRA
TAFWJF
TAF
KWJF 291742Z 2918/3018 07005KT P6SM SKC
     FM292200 26010KT P6SM SCT250
     FM300500 VRB05KT P6SM SCT250=



000
FTUS46 KLOX 291700 RRA
TAFPRB
TAF
KPRB 291742Z 2918/3018 00000KT P6SM FEW007
     FM292300 32007KT P6SM SKC
     FM300300 VRB05KT P6SM SKC
     FM301100 VRB03KT P6SM SCT005=



000
FTUS46 KLOX 291500 AAD
TAFSMX
TAF AMD
KSMX 291540Z 2916/3012 00000KT 6SM BR SKC
     FM291700 34006KT P6SM SKC
     FM292000 30012KT P6SM SKC
     FM300100 VRB05KT P6SM SCT020=



000
FTUS46 KLOX 291500 AAD
TAFPRB
TAF AMD
KPRB 291539Z 2916/3012 00000KT P6SM OVC004
     FM291700 36005KT P6SM SKC
     FM292300 20010KT P6SM SKC
     FM300300 VRB05KT P6SM SKC
     FM301100 VRB03KT P6SM SCT005=



000
FTUS46 KLOX 291400 AAA
TAFLAX
TAF AMD
KLAX 291455Z 2915/3018 00000KT P6SM FEW020
     FM291700 24006KT P6SM SKC
     FM292000 25014KT P6SM SKC
     FM300300 25009KT P6SM SKC
     FM300900 VRB05KT P6SM SKC
     FM301300 VRB05KT 6SM BR SCT005=



000
FTUS46 KLOX 291400 AAC
TAFSMX
TAF AMD
KSMX 291416Z 2914/3012 11004KT 5SM HZ SCT001
     FM291700 34006KT P6SM SKC
     FM292000 30012KT P6SM SKC
     FM300100 VRB05KT P6SM SCT020=



000
FTUS46 KLOX 291300 AAB
TAFSBP
TAF AMD
KSBP 291301Z 2913/3012 VRB03KT P6SM SCT006
     FM291700 31006KT P6SM SKC
     FM292000 30014KT P6SM SKC
     FM300200 30008KT P6SM SKC
     FM301000 VRB05KT P6SM SCT010=



000
FTUS46 KLOX 291300 AAC
TAFPRB
TAF AMD
KPRB 291300Z 2913/3012 VRB05KT P6SM SCT004
     FM291700 36005KT P6SM SKC
     FM292300 20010KT P6SM SKC
     FM300300 VRB05KT P6SM SKC
     FM301100 VRB03KT P6SM SCT005=



000
FTUS46 KLOX 291200 AAB
TAFPRB
TAF AMD
KPRB 291225Z 2912/3012 VRB05KT P6SM SCT004
      TEMPO 2912/2916 OVC004
     FM291700 36005KT P6SM SKC
     FM292300 20010KT P6SM SKC
     FM300300 VRB05KT P6SM SKC
     FM301100 VRB03KT P6SM SCT005=



000
FTUS46 KLOX 291200 AAB
TAFSMX
TAF AMD
KSMX 291224Z 2912/3012 VRB03KT 3SM BR BKN002
      TEMPO 2912/2915 1/4SM FG VV002
     FM291700 34006KT P6SM SKC
     FM292000 30012KT P6SM SKC
     FM300100 VRB05KT P6SM SCT020=



000
FTUS46 KLOX 291200 AAA
TAFPRB
TAF AMD
KPRB 291201Z 2912/3012 VRB05KT P6SM OVC004
     FM291700 36005KT P6SM SKC
     FM292300 20010KT P6SM SKC
     FM300300 VRB05KT P6SM SKC
     FM301100 VRB03KT P6SM SCT005=



000
FTUS46 KLOX 291200 AAA
TAFSBP
TAF AMD
KSBP 291201Z 2912/3012 VRB03KT P6SM SCT006
      TEMPO 2913/2917 5SM BR BKN008
     FM291700 31006KT P6SM SKC
     FM292000 30014KT P6SM SKC
     FM300200 30008KT P6SM SKC
     FM301000 VRB05KT P6SM SCT010=



000
FTUS46 KLOX 291100 AAA
TAFSMX
TAF AMD
KSMX 291137Z 2912/3006 VRB03KT 1SM BR OVC002
      TEMPO 2912/2915 5SM BR SCT003
     FM291700 34006KT P6SM SKC
     FM292000 30012KT P6SM SKC
     FM300100 VRB05KT P6SM SCT020=



000
FTUS46 KLOX 291100
TAFSBP
TAF
KSBP 291136Z 2912/3012 VRB03KT P6SM SCT008
     FM291300 VRB03KT P6SM BKN008
     FM291500 31006KT P6SM SKC
     FM292000 30014KT P6SM SKC
     FM300200 30008KT P6SM SKC
     FM301000 VRB05KT P6SM SCT010=



000
FTUS46 KLOX 291100
TAFSMX
TAF
KSMX 291136Z 2912/3012 VRB03KT 5SM BR SCT003
      TEMPO 2912/2915 BKN003
     FM291700 34006KT P6SM SKC
     FM292000 30012KT P6SM SKC
     FM300100 30006KT P6SM SKC
     FM300900 VRB05KT P6SM SCT010=



000
FTUS46 KLOX 291100
TAFPRB
TAF
KPRB 291136Z 2912/3012 VRB05KT P6SM BKN006
     FM291700 36005KT P6SM SKC
     FM292300 20010KT P6SM SKC
     FM300300 VRB05KT P6SM SKC
     FM301100 VRB03KT P6SM SCT005=



000
FTUS46 KLOX 291100
TAFSBA
TAF
KSBA 291136Z 2912/3012 VRB03KT P6SM SKC
     FM291800 20006KT P6SM SKC
     FM292100 25009KT P6SM SKC
     FM300100 VRB05KT P6SM SKC=



000
FTUS46 KLOX 291100
TAFWJF
TAF
KWJF 291130Z 2912/3012 VRB05KT P6SM SKC
     FM291800 VRB03KT P6SM SCT250
     FM292100 04010KT P6SM SCT250
     FM300500 VRB05KT P6SM SCT250=



000
FTUS46 KLOX 291100
TAFLAX
TAF
KLAX 291130Z 2912/3018 VRB03KT P6SM FEW015
     FM291700 24006KT P6SM SKC
     FM292000 25014KT P6SM SKC
     FM300300 25009KT P6SM SKC
     FM300900 VRB05KT P6SM SKC
     FM301300 VRB05KT 6SM BR SCT005=



000
FTUS46 KLOX 291100
TAFLGB
TAF
KLGB 291130Z 2912/3012 VRB03KT P6SM SKC
     FM292000 21008KT P6SM SKC
     FM292300 31008KT P6SM SKC
     FM300400 VRB03KT P6SM SKC=



000
FTUS46 KLOX 291100
TAFVNY
TAF
KVNY 291130Z 2912/3012 VRB03KT P6SM SKC
     FM292100 14007KT P6SM SKC
     FM300400 VRB05KT P6SM SKC=



000
FTUS46 KLOX 291100
TAFBUR
TAF
KBUR 291130Z 2912/3012 VRB03KT P6SM SKC
     FM292100 19008KT P6SM SKC
     FM300400 VRB05KT P6SM SKC=



000
FTUS46 KLOX 291100
TAFPMD
TAF
KPMD 291130Z 2912/3012 VRB05KT P6SM SKC
     FM291800 02004KT P6SM SCT250
     FM292100 03010KT P6SM SCT250
     FM300500 VRB05KT P6SM SCT250=



000
FTUS46 KLOX 291100 AAA
TAFPRB
TAF AMD
KPRB 291114Z 2911/3006 VRB05KT P6SM BKN006
     FM291700 36005KT P6SM SKC
     FM292300 20010KT P6SM SKC
     FM300300 VRB05KT P6SM SKC=



000
FTUS46 KLOX 291100 AAE
TAFSMX
TAF AMD
KSMX 291114Z 2911/3006 VRB03KT 5SM BR SCT003
      TEMPO 2911/2914 BKN003
     FM291700 34006KT P6SM SKC
     FM292000 30012KT P6SM SKC
     FM300100 VRB05KT P6SM SCT020=



000
FTUS46 KLOX 291000 AAD
TAFSMX
TAF AMD
KSMX 291019Z 2910/3006 VRB03KT 5SM BR SCT004
      TEMPO 2912/2914 BKN004
     FM291700 34006KT P6SM SKC
     FM292000 30012KT P6SM SKC
     FM300100 VRB05KT P6SM SCT020=



000
FTUS46 KLOX 291000 AAC
TAFSBP
TAF AMD
KSBP 291017Z 2910/3006 VRB03KT P6SM SCT008
     FM291300 VRB03KT P6SM BKN008
     FM291500 31006KT P6SM SKC
     FM292000 30014KT P6SM SKC
     FM300200 VRB05KT P6SM SCT020=



000
FTUS46 KLOX 290900 AAA
TAFPMD
TAF AMD
KPMD 290958Z 2910/3006 VRB03KT P6SM SKC
     FM291800 02004KT P6SM SCT250
     FM292100 03010KT P6SM SCT250
     FM300500 VRB05KT P6SM SCT250=



000
FTUS46 KLOX 290900 AAC
TAFSMX
TAF AMD
KSMX 290953Z 2910/3006 VRB03KT 5SM BR SCT004
      TEMPO 2910/2913 BKN004
     FM291300 VRB03KT 5SM BR BKN005
      TEMPO 2913/2917 2SM BR OVC005
     FM291700 VRB03KT 3SM BR BKN004
     FM291800 34006KT P6SM SKC
     FM292000 30012KT P6SM SKC
     FM300100 VRB05KT P6SM SCT020=



000
FTUS46 KLOX 290900 AAA
TAFVNY
TAF AMD
KVNY 290950Z 2910/3006 VRB03KT P6SM SKC
     FM292100 14007KT P6SM SKC
     FM300400 VRB05KT P6SM SKC=



000
FTUS46 KLOX 290900 AAA
TAFBUR
TAF AMD
KBUR 290950Z 2910/3006 VRB03KT P6SM SKC
     FM292100 19008KT P6SM SKC
     FM300400 VRB05KT P6SM SKC=



000
FTUS46 KLOX 290900 AAB
TAFLGB
TAF AMD
KLGB 290949Z 2910/3006 VRB03KT P6SM SKC
     FM292000 21008KT P6SM SKC
     FM292300 31008KT P6SM SKC
     FM300400 VRB03KT P6SM SKC=



000
FTUS46 KLOX 290900 AAB
TAFLAX
TAF AMD
KLAX 290947Z 2910/3012 VRB03KT P6SM SKC
     FM291700 24006KT P6SM SKC
     FM292000 25014KT P6SM SKC
     FM300300 25009KT P6SM SKC
     FM300900 VRB05KT P6SM SKC=



000
FTUS46 KLOX 290900 AAB
TAFSBP
TAF AMD
KSBP 290931Z 2910/3006 VRB03KT P6SM SKC
     FM291000 VRB03KT P6SM OVC008
     FM291300 VRB03KT P6SM OVC010
     FM291700 31006KT P6SM SKC
     FM292000 30014KT P6SM SKC
     FM300200 VRB05KT P6SM SCT020=



000
FTUS46 KLOX 290900 AAA
TAFLGB
TAF AMD
KLGB 290908Z 2909/3006 VRB03KT P6SM SCT025
     FM291100 VRB03KT P6SM BKN020
     FM291400 VRB03KT P6SM OVC020
     FM291700 18005KT P6SM SCT025
     FM292000 21010KT P6SM SKC
     FM300400 VRB05KT P6SM SKC=



000
FTUS46 KLOX 290900 AAA
TAFLAX
TAF AMD
KLAX 290900Z 2909/3012 VRB03KT P6SM SCT020 SCT040
     FM291100 VRB03KT P6SM BKN025
     FM291700 24006KT P6SM SCT025
     FM292000 25014KT P6SM SKC
     FM300300 25009KT P6SM SKC
     FM300900 VRB05KT P6SM SKC=



000
FTUS46 KLOX 290800 AAB
TAFSMX
TAF AMD
KSMX 290847Z 2909/3006 VRB03KT 6SM BR BKN007
     FM291000 VRB03KT 4SM BR OVC007
     FM291200 VRB03KT 2SM BR OVC003
      TEMPO 2913/2917 1/2SM FG OVC001
     FM291700 VRB03KT 3SM BR BKN004
     FM291800 34006KT P6SM SKC
     FM292000 30012KT P6SM SKC
     FM300100 VRB05KT P6SM SCT020=



000
FTUS46 KLOX 290800 AAA
TAFSMX
TAF AMD
KSMX 290802Z 2908/3006 VRB03KT 6SM BR SCT010
     FM290900 VRB03KT P6SM BKN012
     FM291000 VRB03KT 4SM BR OVC007
     FM291200 VRB03KT 2SM BR OVC003
      TEMPO 2913/2917 1/2SM FG OVC001
     FM291700 VRB03KT 3SM BR BKN004
     FM291800 34006KT P6SM SKC
     FM292000 30012KT P6SM SKC
     FM300100 VRB05KT P6SM SCT020=



000
FTUS46 KLOX 290700 AAA
TAFSBP
TAF AMD
KSBP 290749Z 2908/3006 VRB03KT P6SM BKN010
     FM291000 30005KT P6SM OVC008
     FM291300 32004KT P6SM OVC004
     FM291800 31005KT P6SM SKC
     FM292000 30014KT P6SM SKC
     FM300200 VRB05KT P6SM SCT020=



000
FTUS46 KLOX 290500 RRA
TAFSBA
TAF
KSBA 290539Z 2906/3006 VRB03KT P6SM SKC
     FM291400 VRB03KT P6SM SCT020
     FM291800 20006KT P6SM SCT025
     FM292100 25009KT P6SM SKC
     FM300100 VRB05KT P6SM SKC=



000
FTUS46 KLOX 290500 RRA
TAFSMX
TAF
KSMX 290539Z 2906/3006 VRB03KT 6SM BR SCT010
     FM290800 VRB03KT P6SM BKN012
     FM291000 VRB03KT 4SM BR OVC007
     FM291100 VRB03KT 2SM BR OVC003
      TEMPO 2913/2917 1/2SM FG OVC001
     FM291700 VRB03KT 3SM BR BKN004
     FM291800 34006KT P6SM SKC
     FM292000 30012KT P6SM SKC
     FM300100 VRB05KT P6SM SCT020=



000
FTUS46 KLOX 290500 RRA
TAFSBP
TAF
KSBP 290539Z 2906/3006 VRB03KT P6SM SCT015
     FM290800 VRB03KT P6SM BKN015
     FM291000 30005KT P6SM OVC008
     FM291300 32004KT P6SM OVC004
     FM291800 31005KT P6SM SKC
     FM292000 30014KT P6SM SKC
     FM300200 VRB05KT P6SM SCT020=



000
FTUS46 KLOX 290500 RRA
TAFPRB
TAF
KPRB 290539Z 2906/3006 20006KT P6SM BKN090
     FM291100 VRB03KT P6SM SKC
     FM292100 36005KT P6SM SKC
     FM292300 20010KT P6SM SKC
     FM300300 VRB05KT P6SM SKC=



000
FTUS46 KLOX 290500
TAFLAX
TAF
KLAX 290534Z 2906/3012 VRB03KT P6SM SCT020 SCT040
     FM291000 VRB03KT P6SM BKN020
     FM291700 24006KT P6SM SCT025
     FM292000 25014KT P6SM SKC
     FM300300 25009KT P6SM SKC
     FM300900 VRB05KT P6SM SKC=



000
FTUS46 KLOX 290500
TAFVNY
TAF
KVNY 290534Z 2906/3006 VRB05KT P6SM SCT030
     FM291100 VRB03KT P6SM BKN020
     FM291700 10005KT P6SM SKC
     FM292100 14007KT P6SM SKC
     FM300400 VRB05KT P6SM SKC=



000
FTUS46 KLOX 290500
TAFBUR
TAF
KBUR 290534Z 2906/3006 VRB03KT P6SM SCT030
     FM291100 VRB03KT P6SM BKN020
     FM291700 15004KT P6SM SKC
     FM292100 20008KT P6SM SKC
     FM300400 VRB05KT P6SM SKC=



000
FTUS46 KLOX 290500
TAFLGB
TAF
KLGB 290534Z 2906/3006 VRB03KT P6SM SCT025
     FM290900 VRB03KT P6SM BKN020
     FM291100 VRB03KT P6SM BKN015
     FM291400 VRB03KT P6SM OVC020
     FM291700 18005KT P6SM SCT025
     FM292000 21010KT P6SM SKC
     FM300400 VRB05KT P6SM SKC=



000
FTUS46 KLOX 290500
TAFWJF
TAF
KWJF 290534Z 2906/3006 24008KT P6SM SCT050
     FM291400 23004KT P6SM SKC
     FM291800 VRB03KT P6SM SCT250
     FM292100 04010KT P6SM SCT250
     FM300500 VRB05KT P6SM SCT250=



000
FTUS46 KLOX 290500
TAFPMD
TAF
KPMD 290534Z 2906/3006 22012KT P6SM SCT050
     FM291400 VRB03KT P6SM SKC
     FM291800 02004KT P6SM SCT250
     FM292100 03010KT P6SM SCT250
     FM300500 VRB05KT P6SM SCT250=



000
FTUS46 KLOX 290500 AAA
TAFSMX
TAF AMD
KSMX 290507Z 2905/2924 VRB03KT 6SM BR SCT010
     FM290800 VRB03KT P6SM BKN012
     FM291000 VRB03KT 4SM BR OVC007
     FM291100 VRB03KT 2SM BR OVC003
      TEMPO 2913/2917 1/2SM FG OVC001
     FM291700 VRB03KT 3SM BR BKN004
     FM291800 34006KT P6SM SKC
     FM292000 30012KT P6SM SKC=



000
FTUS46 KLOX 290500 AAA
TAFSBP
TAF AMD
KSBP 290506Z 2905/2924 VRB03KT P6SM SCT015
     FM290800 VRB03KT P6SM BKN015
     FM291000 30005KT P6SM OVC008
     FM291300 32004KT P6SM OVC004
     FM291800 31005KT P6SM SKC
     FM292000 30014KT P6SM SKC=



000
FTUS46 KLOX 290400 AAA
TAFPRB
TAF AMD
KPRB 290427Z 2904/2924 20006KT P6SM FEW090 OVC120
     FM290600 VRB03KT P6SM SKC
     FM292100 36005KT P6SM SKC
     FM292300 20010KT P6SM SKC=



000
FTUS46 KLOX 290400 AAA
TAFLGB
TAF AMD
KLGB 290416Z 2904/2924 30004KT P6SM BKN026
     FM290600 VRB03KT P6SM BKN022
     FM290800 VRB03KT P6SM BKN015
     FM291400 VRB03KT P6SM OVC020
     FM291700 18005KT P6SM SCT025
     FM292000 21010KT P6SM SKC=



000
FTUS46 KLOX 290200 AAA
TAFLAX
TAF AMD
KLAX 290225Z 2902/3006 26011KT P6SM SCT019 SCT035
     FM290400 25007KT P6SM SCT015
     FM290700 VRB03KT P6SM SCT015
     FM291000 VRB03KT P6SM BKN018
     FM291700 24006KT P6SM SCT025
     FM292000 25014KT P6SM SKC
     FM300300 25009KT P6SM SKC=



000
FTUS46 KLOX 290000 AAA
TAFSBA
TAF AMD
KSBA 290053Z 2901/2924 23008KT P6SM SKC
     FM290200 VRB03KT P6SM SKC
     FM291400 VRB03KT P6SM SCT020
     FM291800 20006KT P6SM SCT025
     FM292100 25009KT P6SM SKC=



000
FTUS46 KLOX 282300 RRA
TAFVNY
TAF
KVNY 282340Z 2900/2924 18010KT P6SM BKN060
     FM290300 VRB03KT P6SM SKC
     FM290700 VRB03KT P6SM SCT025
     FM291100 VRB03KT P6SM BKN020
     FM291700 10005KT P6SM SKC
     FM292100 14007KT P6SM SKC=



000
FTUS46 KLOX 282300 RRA
TAFSBA
TAF
KSBA 282340Z 2900/2924 26013KT P6SM SKC
     FM290200 VRB03KT P6SM SKC
     FM291400 VRB03KT P6SM SCT020
     FM291800 20006KT P6SM SCT025
     FM292100 25009KT P6SM SKC=



000
FTUS46 KLOX 282300 RRA
TAFSBP
TAF
KSBP 282340Z 2900/2924 32011KT P6SM SKC
     FM290200 30007KT P6SM SCT020
     FM290500 VRB03KT P6SM BKN015
     FM290800 30005KT P6SM OVC008
     FM291300 32004KT P6SM OVC004
     FM291800 31005KT P6SM SKC
     FM292000 30014KT P6SM SKC=



000
FTUS46 KLOX 282300 RRA
TAFPMD
TAF
KPMD 282340Z 2900/2924 23015G20KT P6SM SCT060
     FM290200 22012KT P6SM SCT050
     FM290500 22008KT P6SM SCT040
     FM291400 VRB03KT P6SM SKC
     FM291800 02004KT P6SM SCT250
     FM292100 03010KT P6SM SCT250=



000
FTUS46 KLOX 282300 RRA
TAFLGB
TAF
KLGB 282340Z 2900/2924 29008KT P6SM SCT040
     FM290500 VRB03KT P6SM SKC
     FM290800 VRB03KT P6SM BKN015
     FM291400 VRB03KT P6SM OVC020
     FM291700 18005KT P6SM SCT025
     FM292000 21010KT P6SM SKC=



000
FTUS46 KLOX 282300 RRA
TAFLAX
TAF
KLAX 282340Z 2900/3006 26013KT P6SM BKN017 BKN035
     FM290300 25007KT P6SM SCT015
     FM290700 VRB03KT P6SM SCT015
     FM291000 VRB03KT P6SM BKN018
     FM291700 24006KT P6SM SCT025
     FM292000 25014KT P6SM SKC
     FM300300 25009KT P6SM SKC=



000
FTUS46 KLOX 282300 RRA
TAFPRB
TAF
KPRB 282340Z 2900/2924 20014KT P6SM SKC
     FM290200 VRB03KT P6SM SKC
     FM291000 VRB03KT P6SM BKN010
     FM291300 VRB03KT 6SM BR OVC006
     FM291700 VRB03KT P6SM SKC
     FM292100 36005KT P6SM SKC
     FM292300 20010KT P6SM SKC=



000
FTUS46 KLOX 282300 RRA
TAFWJF
TAF
KWJF 282340Z 2900/2924 22014G20KT P6SM BKN070
     FM290400 25011KT P6SM SCT050
     FM290800 20006KT P6SM SCT040
     FM291400 23004KT P6SM SKC
     FM291800 VRB03KT P6SM SCT250
     FM292100 04010KT P6SM SCT250=



000
FTUS46 KLOX 282300 RRA
TAFBUR
TAF
KBUR 282340Z 2900/2924 20011KT P6SM BKN060
     FM290300 VRB03KT P6SM SKC
     FM290700 VRB03KT P6SM SCT025
     FM291100 VRB03KT P6SM BKN020
     FM291700 15004KT P6SM SKC
     FM292100 20008KT P6SM SKC=



000
FTUS46 KLOX 282300 RRA
TAFSMX
TAF
KSMX 282340Z 2900/2924 30013KT P6SM SKC
     FM290200 30007KT P6SM SKC
     FM290500 VRB03KT P6SM BKN012
     FM290800 VRB03KT 4SM BR OVC007
     FM291100 VRB03KT 2SM BR OVC003
     FM291300 VRB03KT 1 1/2SM BR OVC001
     FM291700 VRB03KT 3SM BR BKN004
     FM291800 34006KT P6SM SKC
     FM292000 30012KT P6SM SKC=



000
FTUS46 KLOX 282000 AAA
TAFLAX
TAF AMD
KLAX 282032Z 2821/2924 26014KT P6SM SCT035
     FM290300 25007KT P6SM SKC
     FM290700 VRB03KT P6SM SCT015
     FM291000 VRB03KT P6SM BKN012
     FM291700 VRB03KT P6SM SCT012
     FM292000 25013KT P6SM SCT250=



000
FTUS46 KLOX 282000 AAA
TAFSBP
TAF AMD
KSBP 282031Z 2821/2918 27007KT P6SM SCT035
     FM282300 30013KT P6SM SCT035
     FM290200 30007KT P6SM BKN021
     FM290500 VRB03KT P6SM OVC014
     FM290800 VRB03KT P6SM OVC006=



000
FTUS46 KLOX 282000 AAA
TAFBUR
TAF AMD
KBUR 282006Z 2820/2918 14007KT P6SM BKN045
     FM282300 17009KT P6SM SCT045
     FM290300 VRB03KT P6SM SKC
     FM290700 VRB03KT P6SM SCT025=



000
FTUS46 KLOX 282000 AAA
TAFVNY
TAF AMD
KVNY 282006Z 2820/2918 15006KT P6SM SCT029 BKN040
     FM282300 17009KT P6SM SCT035
     FM290200 VRB03KT P6SM SKC
     FM290700 VRB03KT P6SM SCT025=



000
FTUS46 KLOX 281700
TAFLAX
TAF
KLAX 281739Z 2818/2924 VRB04KT P6SM BKN035
     FM281900 25009KT P6SM SCT035
     FM282200 26014KT P6SM SKC
     FM290300 25007KT P6SM SKC
     FM290700 VRB03KT P6SM SCT015
     FM291000 VRB03KT P6SM BKN012
     FM291700 VRB03KT P6SM SCT012
     FM292000 25013KT P6SM SCT250=



000
FTUS46 KLOX 281700
TAFPMD
TAF
KPMD 281739Z 2818/2918 23015G20KT P6SM SCT250
     FM290400 25009KT P6SM SKC=



000
FTUS46 KLOX 281700
TAFSMX
TAF
KSMX 281739Z 2818/2918 VRB03KT P6SM SCT025 OVC035
     FM282000 VRB03KT P6SM SCT026 BKN035
     FM282100 30012KT P6SM SCT020
     FM290200 VRB05KT P6SM OVC020
     FM290500 VRB03KT P6SM OVC014
     FM290800 VRB03KT P6SM OVC006=



000
FTUS46 KLOX 281700
TAFWJF
TAF
KWJF 281739Z 2818/2918 25020G30KT P6SM SCT250
     FM290300 25011KT P6SM SKC=



000
FTUS46 KLOX 281700
TAFSBP
TAF
KSBP 281739Z 2818/2918 VRB03KT P6SM BKN025
     FM282000 27007KT P6SM BKN030
     FM282300 30013KT P6SM SCT035
     FM290200 30007KT P6SM BKN021
     FM290500 VRB03KT P6SM OVC014
     FM290800 VRB03KT P6SM OVC006=



000
FTUS46 KLOX 281700
TAFVNY
TAF
KVNY 281739Z 2818/2918 00000KT P6SM SCT022 SCT030
      TEMPO 2818/2821 BKN025
     FM282100 17009KT P6SM SCT035
     FM290200 VRB03KT P6SM SKC
     FM290700 VRB03KT P6SM SCT025=



000
FTUS46 KLOX 281700
TAFBUR
TAF
KBUR 281739Z 2818/2918 13006KT P6SM SCT020 SCT030
      TEMPO 2818/2821 BKN025
     FM282100 17009KT P6SM SCT035
     FM290300 VRB03KT P6SM SKC
     FM290700 VRB03KT P6SM SCT025=



000
FTUS46 KLOX 281700
TAFLGB
TAF
KLGB 281739Z 2818/2918 VRB03KT P6SM BKN030
     FM281900 20010KT P6SM SCT035
     FM282300 27008KT P6SM SCT035
     FM290200 VRB03KT P6SM SKC
     FM291000 VRB03KT P6SM BKN012=



000
FTUS46 KLOX 281700
TAFSBA
TAF
KSBA 281739Z 2818/2918 13007KT P6SM SCT030
     FM282000 24010KT P6SM SCT030
     FM282300 27013KT P6SM SCT030
     FM290200 VRB03KT P6SM SKC=



000
FTUS46 KLOX 281700
TAFPRB
TAF
KPRB 281739Z 2818/2918 VRB03KT P6SM BKN013
     FM282000 21010KT P6SM SCT025
     FM282300 21015KT P6SM SCT025
     FM290200 VRB03KT P6SM SKC
     FM290400 VRB03KT P6SM BKN017
     FM290800 VRB03KT P6SM OVC009
     FM291600 VRB03KT P6SM SCT025=



000
FTUS46 KLOX 281600 AAB
TAFSBA
TAF AMD
KSBA 281626Z 2816/2912 06006KT P6SM SCT030
     FM281800 24010KT P6SM SCT030
     FM290400 VRB05KT P6SM SKC=



000
FTUS46 KLOX 281600 AAA
TAFLGB
TAF AMD
KLGB 281625Z 2816/2912 VRB03KT P6SM SCT035
     FM282000 20010KT P6SM SCT035
     FM290500 VRB05KT P6SM SCT020=



000
FTUS46 KLOX 281500 AAB
TAFLAX
TAF AMD
KLAX 281545Z 2816/2918 VRB04KT P6SM SCT035 SCT060
     FM281900 25009KT P6SM SCT035
     FM282200 25014KT P6SM SCT035
     FM290700 VRB05KT P6SM SCT025
     FM291400 VRB05KT P6SM OVC025=



000
FTUS46 KLOX 281500 AAB
TAFVNY
TAF AMD
KVNY 281524Z 2815/2912 00000KT P6SM SCT022 OVC040
      TEMPO 2815/2817 BKN017
     FM281700 VRB05KT P6SM BKN040
     FM282100 15010KT P6SM SCT035
     FM290200 VRB03KT P6SM SKC
     FM291100 VRB03KT P6SM SCT025=



000
FTUS46 KLOX 281400 AAA
TAFVNY
TAF AMD
KVNY 281455Z 2815/2912 00000KT P6SM FEW022 OVC040
     FM281700 VRB05KT P6SM BKN040
     FM282100 15010KT P6SM SCT035
     FM290200 VRB03KT P6SM SKC
     FM291100 VRB03KT P6SM SCT025=



000
FTUS46 KLOX 281400 AAB
TAFSMX
TAF AMD
KSMX 281449Z 2815/2912 10005KT 5SM BR FEW009 OVC020
     FM281600 VRB03KT 6SM BR OVC023
     FM281900 VRB03KT P6SM BKN026
     FM282100 30012KT P6SM SCT020
     FM290200 VRB05KT P6SM OVC020
     FM291100 VRB03KT 6SM BR OVC015=



000
FTUS46 KLOX 281400 AAA
TAFSBA
TAF AMD
KSBA 281445Z 2815/2912 06008KT P6SM FEW026 BKN030
     FM281800 24010KT P6SM FEW025
     FM290400 VRB05KT P6SM SKC=



000
FTUS46 KLOX 281400 AAA
TAFLAX
TAF AMD
KLAX 281438Z 2815/2918 VRB03KT P6SM SCT025 BKN035
     FM282000 25009KT P6SM SCT025 SCT035
     FM282200 25014KT P6SM SCT035
     FM290700 VRB05KT P6SM SCT025
     FM291400 VRB05KT P6SM OVC025=



000
FTUS46 KLOX 281300 AAA
TAFSMX
TAF AMD
KSMX 281311Z 2813/2912 VRB05KT 3SM BR FEW005 OVC015
      TEMPO 2813/2816 1SM BR OVC005
     FM281600 VRB03KT 6SM BR OVC015
     FM281900 VRB03KT P6SM BKN020
     FM282100 30012KT P6SM SCT020
     FM290200 VRB05KT P6SM OVC020
     FM291100 VRB03KT 6SM BR OVC015=



000
FTUS46 KLOX 281100
TAFSBA
TAF
KSBA 281137Z 2812/2912 VRB03KT P6SM SKC
     FM281800 24010KT P6SM FEW025
     FM290400 VRB05KT P6SM SKC=



000
FTUS46 KLOX 281100
TAFPRB
TAF
KPRB 281135Z 2812/2912 VRB03KT P6SM BKN013
     FM281800 VRB03KT P6SM SCT020
     FM282100 21010KT P6SM SKC
     FM290500 VRB05KT P6SM SKC
     FM291100 VRB03KT P6SM BKN015=



000
FTUS46 KLOX 281100
TAFSBP
TAF
KSBP 281135Z 2812/2912 VRB03KT P6SM SCT020
      TEMPO 2812/2816 BKN020
     FM281600 VRB03KT P6SM BKN020
     FM282000 30012KT P6SM SCT020
     FM290400 30008KT P6SM BKN020=



000
FTUS46 KLOX 281100
TAFSMX
TAF
KSMX 281135Z 2812/2912 VRB05KT P6SM OVC020
     FM281400 VRB03KT 6SM BR OVC007
     FM281600 VRB03KT P6SM OVC010
     FM281900 VRB03KT P6SM BKN020
     FM282100 30012KT P6SM SCT020
     FM290200 VRB05KT P6SM OVC020
     FM291100 VRB03KT 6SM BR OVC015=



000
FTUS46 KLOX 281100
TAFPMD
TAF
KPMD 281132Z 2812/2912 25010KT P6SM SCT250
     FM281800 26015G22KT P6SM SCT070
     FM290400 25019KT P6SM SKC=



000
FTUS46 KLOX 281100
TAFVNY
TAF
KVNY 281132Z 2812/2912 VRB03KT P6SM BKN025
     FM281700 VRB05KT P6SM SCT025
     FM282100 15010KT P6SM SCT035
     FM290200 VRB03KT P6SM SKC
     FM291100 VRB03KT P6SM SCT025=



000
FTUS46 KLOX 281100
TAFBUR
TAF
KBUR 281132Z 2812/2912 13006KT P6SM BKN020
     FM281600 VRB05KT P6SM SCT025
     FM282100 17009KT P6SM SCT035
     FM290300 VRB05KT P6SM SKC
     FM291100 VRB03KT P6SM SCT025=



000
FTUS46 KLOX 281100
TAFLAX
TAF
KLAX 281132Z 2812/2918 VRB05KT P6SM SCT025 OVC035
     FM282000 23007KT P6SM SCT025 BKN035
     FM282200 25012KT P6SM SCT035
     FM290700 VRB05KT P6SM SCT025
     FM291400 VRB05KT P6SM OVC025=



000
FTUS46 KLOX 281100
TAFLGB
TAF
KLGB 281132Z 2812/2912 VRB05KT P6SM BKN020
     FM281800 14005KT P6SM BKN025
     FM282000 20010KT P6SM SCT030
     FM290500 VRB05KT P6SM SCT020=



000
FTUS46 KLOX 281100
TAFWJF
TAF
KWJF 281132Z 2812/2912 25011KT P6SM SCT250
     FM281800 26017G25KT P6SM SCT070
     FM290300 25011KT P6SM SKC=



000
FTUS46 KLOX 281100 AAB
TAFPRB
TAF AMD
KPRB 281107Z 2811/2906 VRB03KT P6SM BKN013
     FM281700 VRB03KT P6SM SCT020
     FM282100 21010KT P6SM SKC
     FM290500 VRB05KT P6SM SKC=



000
FTUS46 KLOX 281100 AAA
TAFLGB
TAF AMD
KLGB 281104Z 2811/2906 VRB05KT P6SM BKN020
     FM281700 14005KT P6SM SCT025
     FM282000 20010KT P6SM SCT030
     FM290500 VRB05KT P6SM SCT020=



000
FTUS46 KLOX 281000 AAC
TAFSBP
TAF AMD
KSBP 281017Z 2810/2906 VRB03KT P6SM SCT020
      TEMPO 2810/2812 BKN020
     FM281200 VRB03KT 5SM BR OVC020
     FM281700 VRB03KT P6SM BKN020
     FM281900 30012KT P6SM SCT020
     FM290400 30008KT P6SM BKN020=



000
FTUS46 KLOX 281000 AAB
TAFLAX
TAF AMD
KLAX 281015Z 2810/2912 VRB05KT P6SM BKN025
      TEMPO 2810/2814 SCT025
     FM281800 23007KT P6SM SCT025
     FM282000 25012KT P6SM SCT030
     FM290700 VRB05KT P6SM SCT020=



000
FTUS46 KLOX 280900 AAA
TAFBUR
TAF AMD
KBUR 280908Z 2809/2906 13006KT P6SM BKN020
     FM281600 VRB05KT P6SM SCT025
     FM282100 17009KT P6SM SCT035
     FM290300 VRB05KT P6SM SKC=



000
FTUS46 KLOX 280800 AAA
TAFLAX
TAF AMD
KLAX 280807Z 2808/2912 VRB05KT P6SM SCT020
      TEMPO 2808/2810 BKN020
     FM281800 23007KT P6SM SCT025
     FM282000 25012KT P6SM SCT030
     FM290700 VRB05KT P6SM SCT020=



000
FTUS46 KLOX 280800 AAA
TAFVNY
TAF AMD
KVNY 280806Z 2808/2906 VRB03KT P6SM BKN012
     FM281100 VRB03KT P6SM SCT012
     FM281700 VRB05KT P6SM SCT025
     FM282100 15010KT P6SM SCT035
     FM290200 VRB03KT P6SM SKC=



000
FTUS46 KLOX 280700 AAB
TAFSBP
TAF AMD
KSBP 280705Z 2807/2906 VRB03KT P6SM BKN015
     FM281200 VRB03KT 5SM BR OVC010
     FM281700 VRB03KT P6SM BKN020
     FM281900 30012KT P6SM SCT020
     FM290400 30008KT P6SM BKN020=



000
FTUS46 KLOX 280600 AAA
TAFSBP
TAF AMD
KSBP 280634Z 2807/2906 30006KT 6SM BR SCT015
     FM281200 VRB03KT 5SM BR OVC010
     FM281700 VRB03KT P6SM BKN020
     FM281900 30012KT P6SM SCT020
     FM290400 30008KT P6SM BKN020=



000
FTUS46 KLOX 280600 AAA
TAFSBA
TAF AMD
KSBA 280602Z 2806/2906 31010KT P6SM SKC WS010/34030KT
     FM281000 VRB03KT P6SM SKC
     FM281800 24010KT P6SM FEW025
     FM290400 VRB05KT P6SM SKC=



000
FTUS46 KLOX 280600 AAA
TAFPRB
TAF AMD
KPRB 280602Z 2806/2906 30010KT P6SM SCT060
     FM281300 VRB03KT P6SM BKN015
     FM281700 VRB03KT P6SM SCT020
     FM282100 21010KT P6SM SKC
     FM290500 VRB05KT P6SM SKC=



000
FTUS46 KLOX 280500 RRA
TAFSBA
TAF
KSBA 280539Z 2806/2906 34012KT P6SM SKC WS010/34030KT
     FM281000 VRB03KT P6SM SKC
     FM281800 24010KT P6SM FEW025
     FM290400 VRB05KT P6SM SKC=



000
FTUS46 KLOX 280500
TAFSBP
TAF
KSBP 280537Z 2806/2906 30009KT P6SM OVC015
     FM281200 VRB03KT 5SM BR OVC010
     FM281700 VRB03KT P6SM BKN020
     FM281900 30012KT P6SM SCT020
     FM290400 30008KT P6SM BKN020=



000
FTUS46 KLOX 280500
TAFSMX
TAF
KSMX 280537Z 2806/2906 VRB05KT P6SM OVC020
     FM281100 VRB03KT 4SM BR OVC007
     FM281500 VRB03KT P6SM OVC010
     FM281700 VRB03KT P6SM BKN020
     FM281900 30012KT P6SM SCT020
     FM290200 VRB05KT P6SM OVC020=



000
FTUS46 KLOX 280500
TAFPRB
TAF
KPRB 280537Z 2806/2906 28012KT P6SM SCT060
     FM281300 VRB03KT P6SM BKN015
     FM281700 VRB03KT P6SM SCT020
     FM282100 21010KT P6SM SKC
     FM290500 VRB05KT P6SM SKC=



000
FTUS46 KLOX 280500
TAFPMD
TAF
KPMD 280534Z 2806/2906 25010KT P6SM SCT250
     FM281800 26015G22KT P6SM SCT070
     FM290400 25019KT P6SM SKC=



000
FTUS46 KLOX 280500
TAFVNY
TAF
KVNY 280534Z 2806/2906 VRB03KT P6SM SKC
     FM281100 VRB03KT P6SM SKC
     FM281700 VRB05KT P6SM SCT025
     FM282100 15010KT P6SM SCT035
     FM290200 VRB03KT P6SM SKC=



000
FTUS46 KLOX 280500
TAFLGB
TAF
KLGB 280534Z 2806/2906 VRB03KT P6SM SKC
     FM281000 VRB05KT P6SM SCT020
     FM281800 14005KT P6SM SCT025
     FM282000 20010KT P6SM SCT030
     FM290500 VRB05KT P6SM SCT020=



000
FTUS46 KLOX 280500
TAFBUR
TAF
KBUR 280534Z 2806/2906 13006KT P6SM SKC
     FM281100 VRB03KT P6SM SKC
     FM281600 VRB05KT P6SM SCT025
     FM282100 17009KT P6SM SCT035
     FM290300 VRB05KT P6SM SKC=



000
FTUS46 KLOX 280500
TAFWJF
TAF
KWJF 280534Z 2806/2906 25012KT P6SM SCT250
     FM281800 26017G25KT P6SM SCT070
     FM290300 25011KT P6SM SKC=



000
FTUS46 KLOX 280500
TAFLAX
TAF
KLAX 280534Z 2806/2912 25006KT P6SM SKC
     FM281000 VRB03KT P6SM SCT020
     FM281800 23007KT P6SM SCT025
     FM282000 25012KT P6SM SCT030
     FM290700 VRB05KT P6SM SCT020=



000
FTUS46 KLOX 280400 AAA
TAFPMD
TAF AMD
KPMD 280440Z 2805/2824 25010KT P6SM SCT250
     FM281800 26015G22KT P6SM SCT070=



000
FTUS46 KLOX 280400 AAA
TAFWJF
TAF AMD
KWJF 280440Z 2805/2824 25012KT P6SM SCT250
     FM281800 26017G25KT P6SM SCT070=



000
FTUS46 KLOX 280300 AAA
TAFSMX
TAF AMD
KSMX 280303Z 2803/2824 31008KT P6SM BKN020
     FM280500 VRB03KT P6SM OVC012
     FM281100 VRB03KT 4SM BR OVC007
     FM281500 VRB03KT P6SM OVC010
     FM281700 VRB03KT P6SM BKN020
     FM281900 30012KT P6SM SCT020=



000
FTUS46 KLOX 280200 AAA
TAFLAX
TAF AMD
KLAX 280258Z 2803/2906 25012KT P6SM SKC
     FM280600 VRB03KT P6SM SKC
     FM281000 09005KT P6SM BKN015
     FM281500 11006KT P6SM BKN020
     FM281800 23007KT P6SM BKN025
     FM282000 25012KT P6SM SCT030=



000
FTUS46 KLOX 280200 AAA
TAFSBP
TAF AMD
KSBP 280228Z 2802/2824 31012G20KT P6SM BKN015
     FM280400 30008KT P6SM BKN015
     FM280600 VRB03KT P6SM BKN015
     FM281700 VRB03KT P6SM BKN020
     FM281900 30012KT P6SM SCT020=



000
FTUS46 KLOX 272300
TAFWJF
TAF
KWJF 272328Z 2800/2824 27025G35KT P6SM SKC
     FM280300 26015G25KT P6SM SKC
     FM280800 25012KT P6SM SCT250
     FM281800 26017G25KT P6SM SCT070=



000
FTUS46 KLOX 272300
TAFSMX
TAF
KSMX 272328Z 2800/2824 30020G27KT P6SM SCT030
     FM280200 31010KT P6SM SCT020
     FM280500 VRB03KT P6SM OVC012
     FM281100 VRB03KT 4SM BR OVC007
     FM281500 VRB03KT P6SM OVC010
     FM281700 VRB03KT P6SM BKN020
     FM281900 30012KT P6SM SCT020=



000
FTUS46 KLOX 272300
TAFBUR
TAF
KBUR 272328Z 2800/2824 18010KT P6SM SCT070
     FM280200 15006KT P6SM SKC
     FM281100 VRB03KT P6SM SCT025
     FM281700 VRB03KT P6SM BKN030
     FM282100 17009KT P6SM SCT035=



000
FTUS46 KLOX 272300
TAFSBA
TAF
KSBA 272328Z 2800/2824 29015G22KT P6SM SKC
     FM280200 34012KT P6SM SKC WS010/34030KT
     FM281000 VRB03KT P6SM SKC
     FM281800 24010KT P6SM FEW025=



000
FTUS46 KLOX 272300
TAFPMD
TAF
KPMD 272328Z 2800/2824 29025G32KT P6SM FEW070
     FM280300 29015G25KT P6SM SKC
     FM280800 26012KT P6SM SCT250
     FM281800 26015G22KT P6SM SCT070=



000
FTUS46 KLOX 272300
TAFVNY
TAF
KVNY 272328Z 2800/2824 16009KT P6SM SCT070
     FM280200 VRB03KT P6SM SKC
     FM281100 VRB03KT P6SM SCT025
     FM281700 VRB03KT P6SM BKN030
     FM282100 15010KT P6SM SCT035=



000
FTUS46 KLOX 272300
TAFLGB
TAF
KLGB 272328Z 2800/2824 29010KT P6SM SKC
     FM280400 VRB03KT P6SM SKC
     FM281000 12005KT P6SM BKN020
     FM281500 14005KT P6SM BKN025
     FM281800 20009KT P6SM BKN030
     FM282200 21010KT P6SM SCT035=



000
FTUS46 KLOX 272300
TAFLAX
TAF
KLAX 272328Z 2800/2906 26015KT P6SM SCT025
     FM280200 25010KT P6SM SKC
     FM280600 VRB03KT P6SM SKC
     FM281000 09005KT P6SM BKN015
     FM281500 11006KT P6SM BKN020
     FM281800 23007KT P6SM BKN025
     FM282000 25012KT P6SM SCT030=



000
FTUS46 KLOX 272300
TAFPRB
TAF
KPRB 272328Z 2800/2824 28012KT P6SM SCT040
     FM280800 VRB03KT P6SM BKN020
     FM281100 VRB03KT P6SM BKN015
     FM281700 VRB03KT P6SM SCT020
     FM282100 21010KT P6SM SKC=



000
FTUS46 KLOX 272300
TAFSBP
TAF
KSBP 272328Z 2800/2824 31018G25KT P6SM SCT030
     FM280300 32008KT P6SM SKC
     FM280600 VRB03KT P6SM BKN015
     FM281700 VRB03KT P6SM BKN020
     FM281900 30012KT P6SM SCT020=



000
FTUS46 KLOX 272000 AAA
TAFLAX
TAF AMD
KLAX 272036Z 2721/2824 26012KT P6SM SCT030
     FM280200 25010KT P6SM SKC
     FM280600 VRB03KT P6SM SKC
     FM281000 VRB03KT P6SM OVC015
     FM281500 17006KT P6SM BKN021
     FM281800 23007KT P6SM SCT027
     FM282000 25012KT P6SM SKC=



000
FTUS46 KLOX 272000 AAA
TAFBUR
TAF AMD
KBUR 272000Z 2720/2818 17010KT P6SM BKN040
     FM280200 13006KT P6SM SKC
     FM280700 VRB03KT P6SM SKC
     FM281100 VRB03KT P6SM SCT028=



000
FTUS46 KLOX 271900 AAA
TAFVNY
TAF AMD
KVNY 271902Z 2719/2818 15007KT P6SM BKN045
     FM272300 14010KT P6SM SKC
     FM280200 VRB03KT P6SM SKC
     FM281100 VRB03KT P6SM SCT028=



000
FTUS46 KLOX 271800 AAA
TAFSMX
TAF AMD
KSMX 271859Z 2719/2818 30020G28KT P6SM FEW030
     FM280200 31008KT P6SM BKN019
     FM280600 VRB03KT P6SM OVC010
     FM280800 VRB03KT P6SM OVC006
     FM281100 VRB03KT 4SM BR OVC005=



000
FTUS46 KLOX 271800 AAA
TAFSBA
TAF AMD
KSBA 271847Z 2719/2818 27007KT P6SM SKC WS007/35025KT
     FM272000 27015KT P6SM SKC
     FM280000 27015G20KT P6SM SKC
     FM280300 34007KT P6SM SKC WS010/36035KT
     FM281000 VRB03KT P6SM SKC=



000
FTUS46 KLOX 271700
TAFSBP
TAF
KSBP 271731Z 2718/2818 31010KT P6SM SKC
     FM272100 31018G24KT P6SM SKC
     FM280300 33008KT P6SM SKC
     FM280500 VRB03KT P6SM BKN017
     FM281000 VRB03KT P6SM BKN008=



000
FTUS46 KLOX 271700
TAFLAX
TAF
KLAX 271731Z 2718/2824 VRB03KT P6SM BKN028
     FM271900 26008KT P6SM SKC
     FM272100 26016KT P6SM SKC
     FM280200 25010KT P6SM SKC
     FM280600 VRB03KT P6SM SKC
     FM281000 VRB03KT P6SM OVC015
     FM281500 17006KT P6SM BKN021
     FM281800 23007KT P6SM SCT027
     FM282000 25012KT P6SM SKC=



000
FTUS46 KLOX 271700
TAFBUR
TAF
KBUR 271731Z 2718/2818 17010KT P6SM SCT028
      TEMPO 2718/2721 BKN028
     FM280200 13006KT P6SM SKC
     FM280700 VRB03KT P6SM SKC
     FM281100 VRB03KT P6SM SCT028=



000
FTUS46 KLOX 271700
TAFVNY
TAF
KVNY 271731Z 2718/2818 VRB03KT P6SM SCT028
     FM271900 14010KT P6SM SKC
     FM280200 VRB03KT P6SM SKC
     FM281100 VRB03KT P6SM SCT028=



000
FTUS46 KLOX 271700
TAFPMD
TAF
KPMD 271731Z 2718/2818 27015G25KT P6SM SCT040
     FM272100 24025G32KT P6SM SKC
     FM280300 25015G25KT P6SM SKC
     FM280800 24012KT P6SM SCT250=



000
FTUS46 KLOX 271700
TAFLGB
TAF
KLGB 271731Z 2718/2818 19007KT P6SM BKN030
     FM271900 19007KT P6SM SCT035
     FM272200 29010KT P6SM SKC
     FM280400 VRB03KT P6SM SKC
     FM281000 VRB03KT P6SM OVC015
     FM281500 VRB03KT P6SM BKN026=



000
FTUS46 KLOX 271700
TAFPRB
TAF
KPRB 271731Z 2718/2818 33006KT P6SM SKC
     FM272300 23011KT P6SM FEW080
     FM280800 VRB03KT P6SM BKN020
     FM281100 VRB03KT P6SM BKN017=



000
FTUS46 KLOX 271700
TAFSBA
TAF
KSBA 271731Z 2718/2818 15006KT P6SM SKC
     FM272000 25010KT P6SM SKC
     FM280000 27015G20KT P6SM SKC
     FM280300 34007KT P6SM SKC WS010/36035KT
     FM281000 VRB03KT P6SM SKC=



000
FTUS46 KLOX 271700
TAFWJF
TAF
KWJF 271731Z 2718/2818 26018G28KT P6SM SKC
     FM272100 24025G35KT P6SM SKC
     FM280100 25018G28KT P6SM SKC
     FM280600 26014KT P6SM SCT250=



000
FTUS46 KLOX 271700
TAFSMX
TAF
KSMX 271731Z 2718/2818 17003KT P6SM SKC
     FM272000 30020G28KT P6SM SKC
     FM280200 31008KT P6SM BKN019
     FM280600 VRB03KT P6SM OVC010
     FM280800 VRB03KT P6SM OVC006
     FM281100 VRB03KT 4SM BR OVC005=



000
FTUS46 KLOX 271700 AAA
TAFLGB
TAF AMD
KLGB 271721Z 2717/2812 19004KT P6SM SCT024 BKN030
     FM271900 21007KT P6SM SCT035
     FM272200 29010KT P6SM SKC
     FM280400 VRB03KT P6SM SKC
     FM281000 VRB03KT P6SM OVC010=



000
FTUS46 KLOX 271700 AAB
TAFLAX
TAF AMD
KLAX 271716Z 2717/2818 00000KT P6SM SCT017 BKN028
     FM271900 26016KT P6SM SKC
     FM280200 25010KT P6SM SKC
     FM280600 VRB03KT P6SM SKC
     FM281000 VRB03KT P6SM OVC010
     FM281700 27007KT P6SM BKN015=



    US Dept of Commerce
    National Oceanic and Atmospheric Administration
    National Weather Service
    1325 East West Highway
    Silver Spring, MD 20910
    Page Author: NWS Internet Services Team
Disclaimer
Information Quality
Credits
Glossary
Privacy Policy
Freedom of Information Act (FOIA)
About Us
Career Opportunities